Terminal Aerodrome Forecast
Issued by NWS

Home | Current Version | Previous Version | Graphics & Text | Print | Product List | Glossary On
Versions: 1 2 3 4 5 6 7 8 9 10 11 12 13 14 15
000
FTUS43 KBIS 190200 AAA
TAFDIK
TAF AMD
KDIK 190218Z 1902/1924 28016KT P6SM VCSH BKN080 OVC100
      TEMPO 1902/1904 32018G28KT -SHRA OVC080
     FM190700 28015KT P6SM SCT100
     FM191300 27017G27KT P6SM FEW250=

USA.gov is the U.S. government's official web portal to all federal, state and local government web resources and services.